sensor_id;sensor_type;location;lat;lon;timestamp;temperature;humidity
19908;DHT22;10116;53.112;7.356;2022-11-20T00:01:24;25.30;14.40
19908;DHT22;10116;53.112;7.356;2022-11-20T00:03:55;25.30;23.90
19908;DHT22;10116;53.112;7.356;2022-11-20T00:06:21;25.30;14.40
19908;DHT22;10116;53.112;7.356;2022-11-20T00:08:48;25.30;14.20
19908;DHT22;10116;53.112;7.356;2022-11-20T00:11:18;25.30;14.20
19908;DHT22;10116;53.112;7.356;2022-11-20T00:13:46;25.30;14.00
19908;DHT22;10116;53.112;7.356;2022-11-20T00:16:13;25.30;14.80
19908;DHT22;10116;53.112;7.356;2022-11-20T00:18:39;25.30;14.30
19908;DHT22;10116;53.112;7.356;2022-11-20T00:21:11;25.30;14.10
19908;DHT22;10116;53.112;7.356;2022-11-20T00:23:37;25.30;14.50
19908;DHT22;10116;53.112;7.356;2022-11-20T00:26:08;25.30;14.70
19908;DHT22;10116;53.112;7.356;2022-11-20T00:28:34;25.30;14.80
19908;DHT22;10116;53.112;7.356;2022-11-20T00:31:02;25.30;14.70
19908;DHT22;10116;53.112;7.356;2022-11-20T00:33:28;25.30;14.30
19908;DHT22;10116;53.112;7.356;2022-11-20T00:35:58;25.30;15.00
19908;DHT22;10116;53.112;7.356;2022-11-20T00:38:24;25.30;14.80
19908;DHT22;10116;53.112;7.356;2022-11-20T00:40:55;25.30;14.80
19908;DHT22;10116;53.112;7.356;2022-11-20T00:43:21;25.30;14.70
19908;DHT22;10116;53.112;7.356;2022-11-20T00:45:46;25.30;14.50
19908;DHT22;10116;53.112;7.356;2022-11-20T00:48:12;25.30;15.30
19908;DHT22;10116;53.112;7.356;2022-11-20T00:50:37;25.30;14.70
19908;DHT22;10116;53.112;7.356;2022-11-20T00:53:04;25.30;14.80
19908;DHT22;10116;53.112;7.356;2022-11-20T00:55:29;25.30;15.30
19908;DHT22;10116;53.112;7.356;2022-11-20T00:57:55;25.30;14.70
19908;DHT22;10116;53.112;7.356;2022-11-20T01:00:21;25.30;15.30
19908;DHT22;10116;53.112;7.356;2022-11-20T01:02:46;25.30;14.90
19908;DHT22;10116;53.112;7.356;2022-11-20T01:05:12;25.30;14.30
19908;DHT22;10116;53.112;7.356;2022-11-20T01:07:37;25.30;14.40
19908;DHT22;10116;53.112;7.356;2022-11-20T01:10:03;25.30;14.40
19908;DHT22;10116;53.112;7.356;2022-11-20T01:12:29;25.30;15.00
19908;DHT22;10116;53.112;7.356;2022-11-20T01:14:54;25.30;14.90
19908;DHT22;10116;53.112;7.356;2022-11-20T01:17:20;25.30;14.90
19908;DHT22;10116;53.112;7.356;2022-11-20T01:19:49;25.30;14.80
19908;DHT22;10116;53.112;7.356;2022-11-20T01:22:14;25.30;15.90
19908;DHT22;10116;53.112;7.356;2022-11-20T01:24:40;25.30;15.50
19908;DHT22;10116;53.112;7.356;2022-11-20T01:27:06;25.30;15.00
19908;DHT22;10116;53.112;7.356;2022-11-20T01:29:31;25.30;14.80
19908;DHT22;10116;53.112;7.356;2022-11-20T01:31:57;25.30;15.10
19908;DHT22;10116;53.112;7.356;2022-11-20T01:34:23;25.30;15.00
19908;DHT22;10116;53.112;7.356;2022-11-20T01:36:49;25.30;15.10
19908;DHT22;10116;53.112;7.356;2022-11-20T01:39:23;25.30;14.90
19908;DHT22;10116;53.112;7.356;2022-11-20T01:41:50;25.30;14.80
19908;DHT22;10116;53.112;7.356;2022-11-20T01:44:47;25.30;15.40
19908;DHT22;10116;53.112;7.356;2022-11-20T01:47:16;25.30;14.90
19908;DHT22;10116;53.112;7.356;2022-11-20T01:49:55;25.30;15.10
19908;DHT22;10116;53.112;7.356;2022-11-20T01:52:32;25.30;15.10
19908;DHT22;10116;53.112;7.356;2022-11-20T01:57:31;25.30;15.10
19908;DHT22;10116;53.112;7.356;2022-11-20T02:00:04;25.30;15.40
19908;DHT22;10116;53.112;7.356;2022-11-20T02:02:31;25.30;15.10
19908;DHT22;10116;53.112;7.356;2022-11-20T02:05:01;25.30;15.40
19908;DHT22;10116;53.112;7.356;2022-11-20T02:07:28;25.30;15.20
19908;DHT22;10116;53.112;7.356;2022-11-20T02:09:54;25.30;15.50
19908;DHT22;10116;53.112;7.356;2022-11-20T02:12:20;25.30;15.20
19908;DHT22;10116;53.112;7.356;2022-11-20T02:15:04;25.30;15.20
19908;DHT22;10116;53.112;7.356;2022-11-20T02:17:30;25.30;15.10
19908;DHT22;10116;53.112;7.356;2022-11-20T02:19:56;25.30;24.50
19908;DHT22;10116;53.112;7.356;2022-11-20T02:22:29;25.30;15.50
19908;DHT22;10116;53.112;7.356;2022-11-20T02:24:57;25.30;15.20
19908;DHT22;10116;53.112;7.356;2022-11-20T02:27:25;25.30;16.00
19908;DHT22;10116;53.112;7.356;2022-11-20T02:29:58;25.30;15.40
19908;DHT22;10116;53.112;7.356;2022-11-20T02:32:31;25.30;15.90
19908;DHT22;10116;53.112;7.356;2022-11-20T02:34:57;25.30;15.30
19908;DHT22;10116;53.112;7.356;2022-11-20T02:37:23;25.30;15.60
19908;DHT22;10116;53.112;7.356;2022-11-20T02:39:51;25.30;15.90
19908;DHT22;10116;53.112;7.356;2022-11-20T02:42:17;25.30;15.10
19908;DHT22;10116;53.112;7.356;2022-11-20T02:44:43;25.30;15.50
19908;DHT22;10116;53.112;7.356;2022-11-20T02:47:09;25.30;15.30
19908;DHT22;10116;53.112;7.356;2022-11-20T02:49:35;25.30;15.90
19908;DHT22;10116;53.112;7.356;2022-11-20T02:52:00;25.30;15.50
19908;DHT22;10116;53.112;7.356;2022-11-20T02:54:26;25.30;15.50
19908;DHT22;10116;53.112;7.356;2022-11-20T02:56:52;25.30;15.40
19908;DHT22;10116;53.112;7.356;2022-11-20T02:59:18;25.30;15.90
19908;DHT22;10116;53.112;7.356;2022-11-20T03:01:43;25.30;15.50
19908;DHT22;10116;53.112;7.356;2022-11-20T03:04:09;25.30;15.80
19908;DHT22;10116;53.112;7.356;2022-11-20T03:06:35;25.30;15.20
19908;DHT22;10116;53.112;7.356;2022-11-20T03:09:00;25.30;15.70
19908;DHT22;10116;53.112;7.356;2022-11-20T03:11:26;25.30;15.50
19908;DHT22;10116;53.112;7.356;2022-11-20T03:13:52;25.30;15.40
19908;DHT22;10116;53.112;7.356;2022-11-20T03:16:20;25.30;16.20
19908;DHT22;10116;53.112;7.356;2022-11-20T03:18:46;25.30;16.90
19908;DHT22;10116;53.112;7.356;2022-11-20T03:21:13;25.30;15.60
19908;DHT22;10116;53.112;7.356;2022-11-20T03:23:39;25.30;15.40
19908;DHT22;10116;53.112;7.356;2022-11-20T03:26:11;25.30;15.40
19908;DHT22;10116;53.112;7.356;2022-11-20T03:28:38;25.30;15.30
19908;DHT22;10116;53.112;7.356;2022-11-20T03:31:12;25.30;15.60
19908;DHT22;10116;53.112;7.356;2022-11-20T03:33:40;25.30;24.70
19908;DHT22;10116;53.112;7.356;2022-11-20T03:36:08;25.30;15.40
19908;DHT22;10116;53.112;7.356;2022-11-20T03:38:34;25.30;15.60
19908;DHT22;10116;53.112;7.356;2022-11-20T03:41:20;25.30;15.80
19908;DHT22;10116;53.112;7.356;2022-11-20T03:46:19;25.30;15.60
19908;DHT22;10116;53.112;7.356;2022-11-20T03:48:44;25.30;15.70
19908;DHT22;10116;53.112;7.356;2022-11-20T03:51:12;25.30;15.90
19908;DHT22;10116;53.112;7.356;2022-11-20T03:53:39;25.30;15.40
19908;DHT22;10116;53.112;7.356;2022-11-20T03:56:05;25.30;15.70
19908;DHT22;10116;53.112;7.356;2022-11-20T03:58:33;25.30;16.10
19908;DHT22;10116;53.112;7.356;2022-11-20T04:01:14;25.30;16.00
19908;DHT22;10116;53.112;7.356;2022-11-20T04:03:41;25.30;15.70
19908;DHT22;10116;53.112;7.356;2022-11-20T04:06:19;25.30;15.80
19908;DHT22;10116;53.112;7.356;2022-11-20T04:08:45;25.30;15.30
19908;DHT22;10116;53.112;7.356;2022-11-20T04:11:19;25.40;16.30
19908;DHT22;10116;53.112;7.356;2022-11-20T04:13:53;25.30;16.00
19908;DHT22;10116;53.112;7.356;2022-11-20T04:16:20;25.30;15.40
19908;DHT22;10116;53.112;7.356;2022-11-20T04:18:46;25.30;15.70
19908;DHT22;10116;53.112;7.356;2022-11-20T04:21:11;25.30;15.90
19908;DHT22;10116;53.112;7.356;2022-11-20T04:23:38;25.30;15.80
19908;DHT22;10116;53.112;7.356;2022-11-20T04:26:08;25.30;16.80
19908;DHT22;10116;53.112;7.356;2022-11-20T04:28:34;25.40;16.20
19908;DHT22;10116;53.112;7.356;2022-11-20T04:31:08;25.40;16.40
19908;DHT22;10116;53.112;7.356;2022-11-20T04:33:35;25.40;16.60
19908;DHT22;10116;53.112;7.356;2022-11-20T04:36:06;25.50;16.90
19908;DHT22;10116;53.112;7.356;2022-11-20T04:38:32;25.50;17.10
19908;DHT22;10116;53.112;7.356;2022-11-20T04:41:03;25.60;17.50
19908;DHT22;10116;53.112;7.356;2022-11-20T04:43:29;25.60;18.10
19908;DHT22;10116;53.112;7.356;2022-11-20T04:45:56;25.60;18.50
19908;DHT22;10116;53.112;7.356;2022-11-20T04:48:22;25.70;19.00
19908;DHT22;10116;53.112;7.356;2022-11-20T04:50:48;25.70;18.40
19908;DHT22;10116;53.112;7.356;2022-11-20T04:53:14;25.70;18.30
19908;DHT22;10116;53.112;7.356;2022-11-20T04:55:40;25.70;27.40
19908;DHT22;10116;53.112;7.356;2022-11-20T04:58:05;25.70;18.50
19908;DHT22;10116;53.112;7.356;2022-11-20T05:00:31;25.70;18.10
19908;DHT22;10116;53.112;7.356;2022-11-20T05:02:56;25.70;18.30
19908;DHT22;10116;53.112;7.356;2022-11-20T05:05:22;25.70;18.40
19908;DHT22;10116;53.112;7.356;2022-11-20T05:07:48;25.70;18.20
19908;DHT22;10116;53.112;7.356;2022-11-20T05:10:13;25.70;18.30
19908;DHT22;10116;53.112;7.356;2022-11-20T05:12:39;25.70;18.50
19908;DHT22;10116;53.112;7.356;2022-11-20T05:15:05;25.70;17.90
19908;DHT22;10116;53.112;7.356;2022-11-20T05:17:31;25.70;17.90
19908;DHT22;10116;53.112;7.356;2022-11-20T05:19:56;25.70;18.10
19908;DHT22;10116;53.112;7.356;2022-11-20T05:22:22;25.70;17.80
19908;DHT22;10116;53.112;7.356;2022-11-20T05:24:47;25.70;17.90
19908;DHT22;10116;53.112;7.356;2022-11-20T05:27:13;25.70;19.00
19908;DHT22;10116;53.112;7.356;2022-11-20T05:29:38;25.70;17.90
19908;DHT22;10116;53.112;7.356;2022-11-20T05:32:04;25.70;18.10
19908;DHT22;10116;53.112;7.356;2022-11-20T05:34:31;25.70;18.30
19908;DHT22;10116;53.112;7.356;2022-11-20T05:36:57;25.70;18.20
19908;DHT22;10116;53.112;7.356;2022-11-20T05:39:22;25.80;18.50
19908;DHT22;10116;53.112;7.356;2022-11-20T05:41:48;25.80;18.80
19908;DHT22;10116;53.112;7.356;2022-11-20T05:44:33;25.90;19.00
19908;DHT22;10116;53.112;7.356;2022-11-20T05:46:59;25.90;19.20
19908;DHT22;10116;53.112;7.356;2022-11-20T05:49:25;25.90;28.70
19908;DHT22;10116;53.112;7.356;2022-11-20T05:51:50;25.90;19.20
19908;DHT22;10116;53.112;7.356;2022-11-20T05:54:16;25.90;22.70
19908;DHT22;10116;53.112;7.356;2022-11-20T05:56:41;25.90;20.10
19908;DHT22;10116;53.112;7.356;2022-11-20T05:59:07;26.00;19.50
19908;DHT22;10116;53.112;7.356;2022-11-20T06:01:33;26.00;19.30
19908;DHT22;10116;53.112;7.356;2022-11-20T06:03:58;26.00;19.60
19908;DHT22;10116;53.112;7.356;2022-11-20T06:06:24;26.00;19.70
19908;DHT22;10116;53.112;7.356;2022-11-20T06:08:51;26.00;19.90
19908;DHT22;10116;53.112;7.356;2022-11-20T06:11:17;26.00;19.60
19908;DHT22;10116;53.112;7.356;2022-11-20T06:13:44;26.00;19.80
19908;DHT22;10116;53.112;7.356;2022-11-20T06:16:11;26.00;19.50
19908;DHT22;10116;53.112;7.356;2022-11-20T06:18:38;26.00;19.40
19908;DHT22;10116;53.112;7.356;2022-11-20T06:21:14;26.00;19.30
19908;DHT22;10116;53.112;7.356;2022-11-20T06:23:41;26.00;19.70
19908;DHT22;10116;53.112;7.356;2022-11-20T06:26:15;26.00;19.10
19908;DHT22;10116;53.112;7.356;2022-11-20T06:28:41;25.90;19.20
19908;DHT22;10116;53.112;7.356;2022-11-20T06:31:07;25.90;19.10
19908;DHT22;10116;53.112;7.356;2022-11-20T06:33:33;25.90;18.70
19908;DHT22;10116;53.112;7.356;2022-11-20T06:36:00;25.90;18.90
19908;DHT22;10116;53.112;7.356;2022-11-20T06:38:27;25.90;19.00
19908;DHT22;10116;53.112;7.356;2022-11-20T06:40:53;26.00;19.80
19908;DHT22;10116;53.112;7.356;2022-11-20T06:43:18;26.00;20.00
19908;DHT22;10116;53.112;7.356;2022-11-20T06:45:44;26.10;20.00
19908;DHT22;10116;53.112;7.356;2022-11-20T06:48:09;26.10;20.00
19908;DHT22;10116;53.112;7.356;2022-11-20T06:50:38;26.10;20.40
19908;DHT22;10116;53.112;7.356;2022-11-20T06:53:04;26.10;20.00
19908;DHT22;10116;53.112;7.356;2022-11-20T06:55:31;26.20;20.50
19908;DHT22;10116;53.112;7.356;2022-11-20T06:57:57;26.20;20.40
19908;DHT22;10116;53.112;7.356;2022-11-20T07:00:24;26.20;20.50
19908;DHT22;10116;53.112;7.356;2022-11-20T07:02:49;26.20;20.40
19908;DHT22;10116;53.112;7.356;2022-11-20T07:05:15;26.20;20.50
19908;DHT22;10116;53.112;7.356;2022-11-20T07:07:41;26.20;21.30
19908;DHT22;10116;53.112;7.356;2022-11-20T07:10:07;26.20;20.80
19908;DHT22;10116;53.112;7.356;2022-11-20T07:12:33;26.20;21.00
19908;DHT22;10116;53.112;7.356;2022-11-20T07:14:59;26.20;30.00
19908;DHT22;10116;53.112;7.356;2022-11-20T07:17:24;26.20;20.50
19908;DHT22;10116;53.112;7.356;2022-11-20T07:19:50;26.20;21.30
19908;DHT22;10116;53.112;7.356;2022-11-20T07:22:15;26.20;21.30
19908;DHT22;10116;53.112;7.356;2022-11-20T07:24:41;26.20;20.40
19908;DHT22;10116;53.112;7.356;2022-11-20T07:27:07;26.20;21.00
19908;DHT22;10116;53.112;7.356;2022-11-20T07:29:32;26.20;20.50
19908;DHT22;10116;53.112;7.356;2022-11-20T07:31:58;26.20;20.30
19908;DHT22;10116;53.112;7.356;2022-11-20T07:34:23;26.20;29.90
19908;DHT22;10116;53.112;7.356;2022-11-20T07:36:49;26.20;20.30
19908;DHT22;10116;53.112;7.356;2022-11-20T07:39:14;26.10;20.30
19908;DHT22;10116;53.112;7.356;2022-11-20T07:41:40;26.10;19.90
19908;DHT22;10116;53.112;7.356;2022-11-20T07:44:05;26.10;20.30
19908;DHT22;10116;53.112;7.356;2022-11-20T07:46:31;26.10;20.30
19908;DHT22;10116;53.112;7.356;2022-11-20T07:48:57;26.20;20.30
19908;DHT22;10116;53.112;7.356;2022-11-20T07:51:22;26.20;20.70
19908;DHT22;10116;53.112;7.356;2022-11-20T07:53:51;26.20;20.20
19908;DHT22;10116;53.112;7.356;2022-11-20T07:56:16;26.20;20.60
19908;DHT22;10116;53.112;7.356;2022-11-20T07:58:42;26.20;20.10
19908;DHT22;10116;53.112;7.356;2022-11-20T08:01:08;26.20;20.10
19908;DHT22;10116;53.112;7.356;2022-11-20T08:03:34;26.20;20.00
19908;DHT22;10116;53.112;7.356;2022-11-20T08:06:00;26.20;20.10
19908;DHT22;10116;53.112;7.356;2022-11-20T08:08:27;26.20;19.90
19908;DHT22;10116;53.112;7.356;2022-11-20T08:10:52;26.20;20.70
19908;DHT22;10116;53.112;7.356;2022-11-20T08:13:38;26.20;19.20
19908;DHT22;10116;53.112;7.356;2022-11-20T08:16:22;26.20;19.30
19908;DHT22;10116;53.112;7.356;2022-11-20T08:18:47;26.20;19.20
19908;DHT22;10116;53.112;7.356;2022-11-20T08:21:13;26.20;19.70
19908;DHT22;10116;53.112;7.356;2022-11-20T08:23:38;26.20;19.00
19908;DHT22;10116;53.112;7.356;2022-11-20T08:26:04;26.20;19.10
19908;DHT22;10116;53.112;7.356;2022-11-20T08:28:29;26.20;18.80
19908;DHT22;10116;53.112;7.356;2022-11-20T08:31:00;26.20;19.10
19908;DHT22;10116;53.112;7.356;2022-11-20T08:33:26;26.20;18.50
19908;DHT22;10116;53.112;7.356;2022-11-20T08:35:51;26.20;18.20
19908;DHT22;10116;53.112;7.356;2022-11-20T08:38:17;26.20;18.20
19908;DHT22;10116;53.112;7.356;2022-11-20T08:40:42;26.20;18.50
19908;DHT22;10116;53.112;7.356;2022-11-20T08:43:28;26.20;17.70
19908;DHT22;10116;53.112;7.356;2022-11-20T08:45:56;26.20;17.90
19908;DHT22;10116;53.112;7.356;2022-11-20T08:48:22;26.20;18.00
19908;DHT22;10116;53.112;7.356;2022-11-20T08:50:47;26.20;17.70
19908;DHT22;10116;53.112;7.356;2022-11-20T08:53:13;26.20;18.60
19908;DHT22;10116;53.112;7.356;2022-11-20T08:55:38;26.20;17.70
19908;DHT22;10116;53.112;7.356;2022-11-20T08:58:05;26.20;18.00
19908;DHT22;10116;53.112;7.356;2022-11-20T09:00:31;26.20;17.70
19908;DHT22;10116;53.112;7.356;2022-11-20T09:02:57;26.20;17.80
19908;DHT22;10116;53.112;7.356;2022-11-20T09:05:24;26.20;18.10
19908;DHT22;10116;53.112;7.356;2022-11-20T09:07:49;26.20;17.60
19908;DHT22;10116;53.112;7.356;2022-11-20T09:10:15;26.20;17.70
19908;DHT22;10116;53.112;7.356;2022-11-20T09:12:41;26.20;17.80
19908;DHT22;10116;53.112;7.356;2022-11-20T09:15:07;26.20;17.40
19908;DHT22;10116;53.112;7.356;2022-11-20T09:17:32;26.10;17.40
19908;DHT22;10116;53.112;7.356;2022-11-20T09:19:58;26.10;17.00
19908;DHT22;10116;53.112;7.356;2022-11-20T09:22:24;26.10;17.50
19908;DHT22;10116;53.112;7.356;2022-11-20T09:24:49;26.10;16.60
19908;DHT22;10116;53.112;7.356;2022-11-20T09:27:15;26.00;16.50
19908;DHT22;10116;53.112;7.356;2022-11-20T09:29:45;26.00;16.60
19908;DHT22;10116;53.112;7.356;2022-11-20T09:32:11;26.00;16.50
19908;DHT22;10116;53.112;7.356;2022-11-20T09:34:37;26.00;16.50
19908;DHT22;10116;53.112;7.356;2022-11-20T09:37:02;25.90;17.30
19908;DHT22;10116;53.112;7.356;2022-11-20T09:39:28;25.90;16.40
19908;DHT22;10116;53.112;7.356;2022-11-20T09:44:38;25.90;16.50
19908;DHT22;10116;53.112;7.356;2022-11-20T09:47:23;25.90;16.90
19908;DHT22;10116;53.112;7.356;2022-11-20T09:50:14;26.00;17.30
19908;DHT22;10116;53.112;7.356;2022-11-20T09:55:34;26.00;17.20
19908;DHT22;10116;53.112;7.356;2022-11-20T09:58:00;26.00;17.30
19908;DHT22;10116;53.112;7.356;2022-11-20T10:00:30;26.10;18.10
19908;DHT22;10116;53.112;7.356;2022-11-20T10:03:17;26.10;17.50
19908;DHT22;10116;53.112;7.356;2022-11-20T10:05:52;26.10;17.60
19908;DHT22;10116;53.112;7.356;2022-11-20T10:08:25;26.10;17.50
19908;DHT22;10116;53.112;7.356;2022-11-20T10:11:07;26.10;17.30
19908;DHT22;10116;53.112;7.356;2022-11-20T10:13:40;26.10;17.40
19908;DHT22;10116;53.112;7.356;2022-11-20T10:16:26;26.00;17.40
19908;DHT22;10116;53.112;7.356;2022-11-20T10:24:57;26.00;17.60
19908;DHT22;10116;53.112;7.356;2022-11-20T10:27:55;26.00;17.00
19908;DHT22;10116;53.112;7.356;2022-11-20T10:30:23;26.00;17.30
19908;DHT22;10116;53.112;7.356;2022-11-20T10:33:17;26.00;16.80
19908;DHT22;10116;53.112;7.356;2022-11-20T10:38:25;26.00;17.00
19908;DHT22;10116;53.112;7.356;2022-11-20T10:41:00;26.00;17.00
19908;DHT22;10116;53.112;7.356;2022-11-20T10:43:45;25.80;15.40
19908;DHT22;10116;53.112;7.356;2022-11-20T10:46:18;25.40;11.60
19908;DHT22;10116;53.112;7.356;2022-11-20T10:48:45;25.30;10.50
19908;DHT22;10116;53.112;7.356;2022-11-20T10:54:17;25.00;9.10
19908;DHT22;10116;53.112;7.356;2022-11-20T10:56:47;24.90;8.60
19908;DHT22;10116;53.112;7.356;2022-11-20T10:59:35;24.80;8.10
19908;DHT22;10116;53.112;7.356;2022-11-20T11:02:29;24.70;7.80
19908;DHT22;10116;53.112;7.356;2022-11-20T11:04:58;24.70;8.20
19908;DHT22;10116;53.112;7.356;2022-11-20T11:07:38;24.60;7.70
19908;DHT22;10116;53.112;7.356;2022-11-20T11:10:19;24.60;7.70
19908;DHT22;10116;53.112;7.356;2022-11-20T11:12:47;24.50;7.70
19908;DHT22;10116;53.112;7.356;2022-11-20T11:15:39;24.50;8.40
19908;DHT22;10116;53.112;7.356;2022-11-20T11:18:09;24.40;7.50
19908;DHT22;10116;53.112;7.356;2022-11-20T11:20:35;24.40;7.40
19908;DHT22;10116;53.112;7.356;2022-11-20T11:23:01;24.30;7.10
19908;DHT22;10116;53.112;7.356;2022-11-20T11:25:31;24.30;6.70
19908;DHT22;10116;53.112;7.356;2022-11-20T11:28:01;24.30;7.10
19908;DHT22;10116;53.112;7.356;2022-11-20T11:30:29;24.20;7.00
19908;DHT22;10116;53.112;7.356;2022-11-20T11:33:06;24.10;6.40
19908;DHT22;10116;53.112;7.356;2022-11-20T11:35:46;24.10;7.00
19908;DHT22;10116;53.112;7.356;2022-11-20T11:40:59;24.10;7.20
19908;DHT22;10116;53.112;7.356;2022-11-20T11:43:34;24.10;7.40
19908;DHT22;10116;53.112;7.356;2022-11-20T11:46:30;24.10;7.60
19908;DHT22;10116;53.112;7.356;2022-11-20T11:54:24;24.00;8.40
19908;DHT22;10116;53.112;7.356;2022-11-20T11:56:51;24.00;8.10
19908;DHT22;10116;53.112;7.356;2022-11-20T12:00:18;24.00;8.10
19908;DHT22;10116;53.112;7.356;2022-11-20T12:02:36;24.00;8.60
19908;DHT22;10116;53.112;7.356;2022-11-20T12:11:01;23.90;8.30
19908;DHT22;10116;53.112;7.356;2022-11-20T12:16:19;23.80;8.10
19908;DHT22;10116;53.112;7.356;2022-11-20T12:18:50;23.80;8.10
19908;DHT22;10116;53.112;7.356;2022-11-20T12:26:43;23.80;8.80
19908;DHT22;10116;53.112;7.356;2022-11-20T12:35:04;23.80;9.80
19908;DHT22;10116;53.112;7.356;2022-11-20T12:53:54;23.80;12.00
19908;DHT22;10116;53.112;7.356;2022-11-20T13:07:10;23.70;10.00
19908;DHT22;10116;53.112;7.356;2022-11-20T13:09:40;23.70;10.20
19908;DHT22;10116;53.112;7.356;2022-11-20T13:12:34;23.60;10.10
19908;DHT22;10116;53.112;7.356;2022-11-20T13:15:08;23.60;9.90
19908;DHT22;10116;53.112;7.356;2022-11-20T13:17:56;23.60;9.70
19908;DHT22;10116;53.112;7.356;2022-11-20T13:20:23;23.60;10.30
19908;DHT22;10116;53.112;7.356;2022-11-20T13:22:53;23.60;10.20
19908;DHT22;10116;53.112;7.356;2022-11-20T13:25:43;23.60;9.60
19908;DHT22;10116;53.112;7.356;2022-11-20T13:30:35;23.50;10.00
19908;DHT22;10116;53.112;7.356;2022-11-20T13:35:35;23.50;10.00
19908;DHT22;10116;53.112;7.356;2022-11-20T13:38:05;23.50;10.30
19908;DHT22;10116;53.112;7.356;2022-11-20T13:40:32;23.50;10.20
19908;DHT22;10116;53.112;7.356;2022-11-20T13:46:01;23.50;10.90
19908;DHT22;10116;53.112;7.356;2022-11-20T13:51:11;23.50;10.60
19908;DHT22;10116;53.112;7.356;2022-11-20T13:53:48;23.50;10.60
19908;DHT22;10116;53.112;7.356;2022-11-20T13:56:52;23.50;10.80
19908;DHT22;10116;53.112;7.356;2022-11-20T14:02:14;23.50;11.50
19908;DHT22;10116;53.112;7.356;2022-11-20T14:04:44;23.50;10.70
19908;DHT22;10116;53.112;7.356;2022-11-20T14:07:12;23.50;11.00
19908;DHT22;10116;53.112;7.356;2022-11-20T14:09:37;23.50;10.40
19908;DHT22;10116;53.112;7.356;2022-11-20T14:12:17;23.40;10.50
19908;DHT22;10116;53.112;7.356;2022-11-20T14:14:52;23.40;10.90
19908;DHT22;10116;53.112;7.356;2022-11-20T14:19:44;23.50;11.50
19908;DHT22;10116;53.112;7.356;2022-11-20T14:24:39;23.70;12.50
19908;DHT22;10116;53.112;7.356;2022-11-20T14:27:05;23.80;13.60
19908;DHT22;10116;53.112;7.356;2022-11-20T14:29:37;23.80;14.40
19908;DHT22;10116;53.112;7.356;2022-11-20T14:32:03;24.00;14.80
19908;DHT22;10116;53.112;7.356;2022-11-20T14:34:32;24.00;15.50
19908;DHT22;10116;53.112;7.356;2022-11-20T14:37:01;24.10;15.90
19908;DHT22;10116;53.112;7.356;2022-11-20T14:39:35;24.10;17.40
19908;DHT22;10116;53.112;7.356;2022-11-20T14:42:10;24.20;16.80
19908;DHT22;10116;53.112;7.356;2022-11-20T14:44:39;24.20;17.40
19908;DHT22;10116;53.112;7.356;2022-11-20T14:47:08;24.30;18.10
19908;DHT22;10116;53.112;7.356;2022-11-20T14:49:37;24.30;18.00
19908;DHT22;10116;53.112;7.356;2022-11-20T14:52:12;24.30;18.10
19908;DHT22;10116;53.112;7.356;2022-11-20T14:54:49;24.30;18.40
19908;DHT22;10116;53.112;7.356;2022-11-20T14:57:31;24.40;18.10
19908;DHT22;10116;53.112;7.356;2022-11-20T15:00:19;24.40;18.30
19908;DHT22;10116;53.112;7.356;2022-11-20T15:02:47;24.40;18.70
19908;DHT22;10116;53.112;7.356;2022-11-20T15:05:14;24.40;19.00
19908;DHT22;10116;53.112;7.356;2022-11-20T15:07:42;24.40;18.90
19908;DHT22;10116;53.112;7.356;2022-11-20T15:10:13;24.50;19.20
19908;DHT22;10116;53.112;7.356;2022-11-20T15:12:49;24.50;19.10
19908;DHT22;10116;53.112;7.356;2022-11-20T15:15:23;24.50;19.40
19908;DHT22;10116;53.112;7.356;2022-11-20T15:17:50;24.50;19.60
19908;DHT22;10116;53.112;7.356;2022-11-20T15:20:17;24.60;20.20
19908;DHT22;10116;53.112;7.356;2022-11-20T15:22:42;24.60;19.70
19908;DHT22;10116;53.112;7.356;2022-11-20T15:25:18;24.60;20.30
19908;DHT22;10116;53.112;7.356;2022-11-20T15:27:44;24.60;20.10
19908;DHT22;10116;53.112;7.356;2022-11-20T15:30:19;24.60;20.30
19908;DHT22;10116;53.112;7.356;2022-11-20T15:32:46;24.60;21.10
19908;DHT22;10116;53.112;7.356;2022-11-20T15:35:13;24.60;20.50
19908;DHT22;10116;53.112;7.356;2022-11-20T15:37:39;24.70;21.40
19908;DHT22;10116;53.112;7.356;2022-11-20T15:40:06;24.70;21.10
19908;DHT22;10116;53.112;7.356;2022-11-20T15:42:32;24.70;20.70
19908;DHT22;10116;53.112;7.356;2022-11-20T15:44:57;24.70;21.10
19908;DHT22;10116;53.112;7.356;2022-11-20T15:47:29;24.70;21.20
19908;DHT22;10116;53.112;7.356;2022-11-20T15:49:56;24.70;21.50
19908;DHT22;10116;53.112;7.356;2022-11-20T15:52:21;24.80;21.40
19908;DHT22;10116;53.112;7.356;2022-11-20T15:54:47;24.80;21.60
19908;DHT22;10116;53.112;7.356;2022-11-20T15:57:12;24.80;21.60
19908;DHT22;10116;53.112;7.356;2022-11-20T15:59:39;24.80;22.60
19908;DHT22;10116;53.112;7.356;2022-11-20T16:02:14;24.80;21.90
19908;DHT22;10116;53.112;7.356;2022-11-20T16:04:40;24.80;22.00
19908;DHT22;10116;53.112;7.356;2022-11-20T16:07:06;24.80;31.20
19908;DHT22;10116;53.112;7.356;2022-11-20T16:09:32;24.80;22.50
19908;DHT22;10116;53.112;7.356;2022-11-20T16:11:58;24.90;22.50
19908;DHT22;10116;53.112;7.356;2022-11-20T16:14:27;24.90;22.10
19908;DHT22;10116;53.112;7.356;2022-11-20T16:17:11;24.90;22.50
19908;DHT22;10116;53.112;7.356;2022-11-20T16:19:37;24.90;22.20
19908;DHT22;10116;53.112;7.356;2022-11-20T16:22:03;24.90;23.00
19908;DHT22;10116;53.112;7.356;2022-11-20T16:24:29;24.90;32.30
19908;DHT22;10116;53.112;7.356;2022-11-20T16:26:55;24.90;22.30
19908;DHT22;10116;53.112;7.356;2022-11-20T16:29:21;24.90;22.90
19908;DHT22;10116;53.112;7.356;2022-11-20T16:31:46;24.90;22.90
19908;DHT22;10116;53.112;7.356;2022-11-20T16:34:12;24.90;22.50
19908;DHT22;10116;53.112;7.356;2022-11-20T16:36:40;24.90;22.40
19908;DHT22;10116;53.112;7.356;2022-11-20T16:39:07;24.90;22.50
19908;DHT22;10116;53.112;7.356;2022-11-20T16:41:33;24.90;22.70
19908;DHT22;10116;53.112;7.356;2022-11-20T16:44:01;24.90;22.60
19908;DHT22;10116;53.112;7.356;2022-11-20T16:46:29;24.90;22.90
19908;DHT22;10116;53.112;7.356;2022-11-20T16:49:00;24.90;22.90
19908;DHT22;10116;53.112;7.356;2022-11-20T16:51:28;24.90;22.60
19908;DHT22;10116;53.112;7.356;2022-11-20T16:53:54;25.00;32.20
19908;DHT22;10116;53.112;7.356;2022-11-20T16:56:23;25.00;23.20
19908;DHT22;10116;53.112;7.356;2022-11-20T16:58:50;25.00;23.10
19908;DHT22;10116;53.112;7.356;2022-11-20T17:01:18;25.00;23.00
19908;DHT22;10116;53.112;7.356;2022-11-20T17:03:46;25.00;23.00
19908;DHT22;10116;53.112;7.356;2022-11-20T17:06:21;25.00;23.50
19908;DHT22;10116;53.112;7.356;2022-11-20T17:08:47;25.00;32.60
19908;DHT22;10116;53.112;7.356;2022-11-20T17:11:16;25.00;23.10
19908;DHT22;10116;53.112;7.356;2022-11-20T17:13:42;25.00;23.40
19908;DHT22;10116;53.112;7.356;2022-11-20T17:16:17;25.00;23.30
19908;DHT22;10116;53.112;7.356;2022-11-20T17:18:43;25.00;22.90
19908;DHT22;10116;53.112;7.356;2022-11-20T17:21:09;25.00;23.80